Flight Track Log - Related Links

Times and Time Zones

All times are in EDT time to prevent confusion due to time zone crossing. See the FLG4208 flight status page for this flight to view local times or setup timezone preferences in your user account.

Time Position Orientation Groundspeed Altitude Reporting Facility
EDT Latitude Longitude Course Direction KTS MPH feet Rate Location/Type
Tue 11:55:36 AM 42.1819 -85.4275 108° East 226 260 4,800  Level Chicago Center
Tue 11:56:00 AM 42.1825 -85.3133 107° East  Level FlightAware Approximate
Tue 11:56:38 AM 42.0928 -85.4033 169° South 266 306 8,400  Level Chicago Center
Tue 11:57:00 AM 42.1640 -85.2335 107° East  Level FlightAware Approximate
Tue 11:57:39 AM 42.0250 -85.3817 167° South 279 321 10,900  Level Chicago Center
Tue 11:58:00 AM 42.1453 -85.1537 107° East  Level FlightAware Approximate
Tue 11:58:41 AM 42.0019 -85.2400 102° East 355 409 13,000  Level Chicago Center
Tue 11:59:00 AM 42.1266 -85.0739 108° East  Level FlightAware Approximate
Tue 11:59:43 AM 42.0194 -85.1039 80° East 373 429 13,000  Level Chicago Center
Tue 12:00:45 PM 42.0361 -84.9689 81° East 370 426 13,000 98 Level Chicago Center
Tue 12:01:45 PM 42.0561 -84.8428 78° East 361 415 13,200 100 Climbing Cleveland Center
Tue 12:02:45 PM 42.0650 -84.7092 85° East 361 415 13,200  Level Cleveland Center
Tue 12:03:45 PM 42.0300 -84.5783 110° East 356 410 13,200 -50 Level Cleveland Center
Tue 12:04:45 PM 41.9842 -84.4553 117° Southeast 356 410 13,100  Descending Cleveland Center
Tue 12:05:45 PM 41.9033 -84.3778 144° Southeast 341 392 13,200 50 Climbing Cleveland Center
Tue 12:06:45 PM 41.8247 -84.3006 144° Southeast 349 402 13,200 -276 Level Cleveland Center
Tue 12:07:12 PM 41.7956 -84.2319 120° Southeast 374 430 12,800 -600 Descending Cleveland Center
Tue 12:07:45 PM 41.8000 -84.1597 85° East 321 369 12,600 -627 Descending Cleveland Center
Tue 12:08:19 PM 41.8169 -84.0828 74° East 392 451 12,100 -400 Descending Cleveland Center
Tue 12:08:45 PM 41.8333 -84.0225 70° East 335 386 12,200 -98 Climbing Cleveland Center
Tue 12:09:20 PM 41.8725 -83.9658 47° Northeast 380 437 12,000 -200 Descending Cleveland Center
Tue 12:09:45 PM 41.9011 -83.9172 52° Northeast 332 382 12,000  Level Cleveland Center
Tue 12:10:27 PM 41.9553 -83.8472 44° Northeast 374 430 12,000  Level Cleveland Center
Tue 12:10:45 PM 41.9747 -83.8175 49° Northeast 347 399 12,000 -90 Level Cleveland Center
Tue 12:11:34 PM 42.0289 -83.7422 46° Northeast 348 400 11,900  Descending Cleveland Center
Tue 12:12:35 PM 42.0897 -83.6583 46° Northeast 271 312 12,000 49 Climbing Cleveland Center
Tue 12:13:36 PM 42.1458 -83.5853 44° Northeast 276 318 12,000 -47 Level Cleveland Center
Tue 12:14:43 PM 42.2119 -83.5242 34° Northeast 274 315 11,900 -656 Descending Cleveland Center
Tue 12:15:44 PM 42.2822 -83.4739 28° Northeast 262 302 10,600 -1,200 Descending Cleveland Center
Tue 12:16:33 PM 42.3308 -83.4397 27° Northeast 239 275 9,700 -1,377 Descending Cleveland Center
Tue 12:17:46 PM 42.3967 -83.3978 25° Northeast 222 255 7,800 -2,115 Descending Cleveland Center
Tue 12:18:35 PM 42.4125 -83.3364 71° East 225 259 5,400 -1,964 Descending Cleveland Center
Tue 12:19:36 PM 42.3589 -83.3228 169° South 180 207 4,200 -1,180 Descending Cleveland Center

Login

Don't have an account? Register now (free) for customized features, flight alerts, and more!